Tiempo atmosférico en la estación meteorológica de Punta Galea, Bizkaia (90 m.)



Fecha
DESCASC
Temp. máxima en grados centígrados (hora)
DESCASC
Temp. mínima en grados centígrados (hora)
DESCASC
Temp. media en grados centígrados
DESCASC
Racha de viento máxima en m/sg (hora)
DESCASC
Velocidad máxima media en intervalos de 10 minutos(hora)
DESCASC
Precipitaciones diarias en mm
DESCASC
Precipitaciones de 00:00 a 06:00 en mm
DESCASC
Precipitaciones de 06:00 a 12:00 en mm
DESCASC
Precipitaciones de 12:00 a 18:00 en mm
DESCASC
Precipitaciones de 18:00 a 24:00 en mm
DESCASC
16-06-2019 20.4 (16:20) 10 (06:30) 15.2 8.89 (14:20) 5.83 (14:20) 0 0 0 0 0
15-06-2019 19.6 (15:10) 11 (05:30) 15.3 5 (15:30) 3.33 (15:50) 0 0 0 0 0
14-06-2019 16.3 (10:00) 11.1 (05:40) 13.7 5 (16:40) 2.78 (17:00) 0 0 0 0 0
13-06-2019 17.1 (13:10) 9.8 (00:00) 13.5 7.22 (15:10) 4.44 (15:50) 0 0 0 0 0
12-06-2019 15.9 (16:10) 12.8 (00:00) 14.3 11.94 (05:30) 6.39 (05:20) 0 0 0 0 0
11-06-2019 15.5 (18:40) 10.6 (00:00) 13.1 13.89 (19:20) 8.33 (19:20) 12.4 7.6 4.1 0.7 0
10-06-2019 16.9 (14:30) 11.9 (00:00) 14.4 6.67 (00:10) 3.89 (00:10) 0.7 0 0 0 0.7
09-06-2019 14.8 (00:10) 12.4 (00:00) 13.6 10 (14:50) 6.39 (14:50) 2.3 0 0.9 1 0.4
08-06-2019 18 (15:50) 9.8 (00:00) 13.9 10.83 (14:30) 6.11 (14:30) 0 0 0 0 0
07-06-2019 21 (00:20) 13.8 (00:00) 17.4 17.22 (01:10) 7.78 (13:50) 0.1 0.1 0 0 0
06-06-2019 25.4 (21:30) 10.1 (00:00) 17.8 24.72 (22:30) 8.33 (22:40) 0.1 0.1 0 0 0
05-06-2019 15.8 (17:20) 11.4 (00:00) 13.6 13.61 (12:50) 8.33 (12:40) 12.2 3.8 8.3 0.1 0
04-06-2019 20.6 (13:30) 13.8 (00:00) 17.2 12.78 (17:10) 6.67 (17:20) 1.3 0 0 0 1.3
03-06-2019 20.4 (15:10) 13.8 (00:00) 17.1 6.39 (16:10) 4.17 (16:10) 0 0 0 0 0
02-06-2019 23.5 (10:20) 15.3 (00:00) 19.4 5.83 (19:30) 3.33 (19:30) 0 0 0 0 0
01-06-2019 29.1 (12:20) 16.3 (00:00) 22.7 7.5 (10:40) 4.17 (18:40) 0 0 0 0 0
31-05-2019 26.2 (16:40) 12.8 (00:00) 19.5 5.28 (14:30) 3.06 (14:30) 0 0 0 0 0
30-05-2019 22.1 (16:40) 9.8 (00:00) 16 6.67 (17:00) 3.89 (17:00) 0 0 0 0 0
29-05-2019 17.6 (15:30) 12.2 (00:00) 14.9 9.72 (05:30) 5.28 (05:30) 2.1 2 0.1 0 0
28-05-2019 16 (17:10) 11.6 (00:00) 13.8 12.78 (13:00) 6.94 (13:00) 2.1 0 1.5 0.6 0
27-05-2019 15.2 (16:20) 12.4 (00:00) 13.8 13.61 (16:50) 5.56 (15:40) 0.7 0.1 0 0.6 0
26-05-2019 15.5 (13:30) 12.3 (00:00) 13.9 7.78 (11:50) 4.44 (14:30) 0.9 0 0.7 0 0.2
25-05-2019 16.2 (15:30) 12.5 (00:00) 14.4 9.17 (05:00) 4.72 (05:00) 0.6 0 0.5 0.1 0
24-05-2019 15.2 (15:40) 11.5 (00:00) 13.3 11.67 (03:00) 6.94 (03:00) 3.4 0.3 3 0.1 0
23-05-2019 16.6 (10:50) 12.6 (00:00) 14.6 9.44 (13:10) 4.72 (13:30) 1.8 0 0 0 1.8
22-05-2019 20.8 (17:00) 8.7 (00:00) 14.7 6.11 (14:30) 3.89 (14:10) 0 0 0 0 0
21-05-2019 16.5 (13:10) 8.1 (06:20) 12.3 8.89 (15:30) 5.83 (15:00) 0 0 0 0 0

Gráficas

Temp. máximas Temp. mínimas Temp. medias Precipitaciones Rachas de viento máximas Velocidades máximas media en intervalos de 10 minutos

Datos horarios

Fecha y hora oficial Temperatura (ºC) Velocidad del viento (km/h) Dirección del viento Racha (km/h) Dirección de racha Precipitación (mm) Presión (hPa) Tendencia (hPa) Humedad (%)
2019-06-19 23:00:00 16.8 6 Noroeste 16 Noroeste 0 1007.6 1.4 92
2019-06-19 22:00:00 17 10 Noroeste 18 Noroeste 0 1007.3 1.5 91
2019-06-19 21:00:00 17.2 9 Noroeste 15 Noroeste 0 1006.6 0.8 94
2019-06-19 20:00:00 17.7 8 Noroeste 13 Noroeste 0 1006.2 0.6 92
2019-06-19 19:00:00 17.9 8 Noroeste 14 Noroeste 0 1005.8 0.4 92
2019-06-19 18:00:00 18.3 6 Noroeste 18 Noroeste 0 1005.8 0.6 92
2019-06-19 17:00:00 18.2 6 Noroeste 16 Noroeste 0 1005.6 0.9 92
2019-06-19 16:00:00 19 6 Noroeste 19 Noroeste 0 1005.4 0.8 93
2019-06-19 15:00:00 17.7 9 Noroeste 20 Noroeste 0 1005.2 1 95
2019-06-19 14:00:00 18.1 13 Noroeste 23 Noroeste 0 1004.7 1.5 95
2019-06-19 13:00:00 17.9 13 Noroeste 32 Oeste 0 1004.6 1.6 95
2019-06-19 12:00:00 17.5 15 Noroeste 28 Noroeste 0 1004.2 1.8 95
2019-06-19 11:00:00 17.5 15 Noroeste 22 Noroeste 0 1003.2 0.9 93
2019-06-19 10:00:00 17.7 8 Noroeste 12 Noroeste 0 1003 0.8 88
2019-06-19 09:00:00 17.2 0 Calma 7 Sudeste 0 1002.4 0.5 92
2019-06-19 08:00:00 15.1 4 Sudeste 6 Sudeste 0 1002.3 0.5 96
2019-06-19 07:00:00 15.2 4 Oeste 7 Sudoeste 0 1002.2 0.4 96
2019-06-19 06:00:00 14.4 2 Sudoeste 6 Sudoeste 0 1001.9 0.5 95
2019-06-19 05:00:00 14.9 6 Sudeste 11 Sudeste 0 1001.8 0.2 96
2019-06-19 04:00:00 14.7 6 Nordeste 14 Sur 0 1001.8 -0.3 96
2019-06-19 03:00:00 14.8 9 Sur 15 Sudeste 0 1001.4 -0.9 96
2019-06-19 02:00:00 14.7 10 Sur 16 Sur 0 1001.6 -0.6 96
2019-06-19 01:00:00 14.3 6 Sudeste 9 Sudeste 0 1002.1 0.4 96
2019-06-19 00:00:00 15.1 0 Calma 8 Noroeste 0 1002.3 0.9 95
2019-06-18 23:00:00 15.6 5 Noroeste 9 Noroeste 0 1002.2 1.4 95
2019-06-18 22:00:00 16.2 0 Calma 10 Oeste 0 1001.7 1.2 93
2019-06-18 21:00:00 16.8 6 Noroeste 19 Oeste 0 1001.4 1.3 91
2019-06-18 20:00:00 17.4 9 Noroeste 22 Noroeste 0 1000.8 1.1 91
2019-06-18 19:00:00 16.8 12 Noroeste 28 Noroeste 0 1000.5 1.9 92
2019-06-18 18:00:00 17.1 15 Noroeste 32 Noroeste 0 1000.1 2.3 92
2019-06-18 17:00:00 18.3 16 Noroeste 44 Oeste 0 999.7 1.4 92
2019-06-18 16:00:00 18.7 28 Noroeste 48 Noroeste 0 998.6 -0.3 91
2019-06-18 15:00:00 28.3 5 Norte 34 Sudoeste 0 997.8 -1.4 34
2019-06-18 14:00:00 29.6 6 Sudoeste 25 Sur 0 998.3 -1.4 33
2019-06-18 13:00:00 25.9 4 Nordeste 10 Nordeste 0 998.9 -1.2 61
2019-06-18 12:00:00 22 4 Nordeste 9 Norte 0 999.2 -1.5 80
2019-06-18 11:00:00 20.1 4 Nordeste 10 Nordeste 0 999.7 -0.9 85
2019-06-18 10:00:00 20.3 3 Nordeste 10 Sudeste 0 1000.1 -0.4 85
2019-06-18 09:00:00 20.1 5 Sudeste 13 Sur 0 1000.7 0.2 85
2019-06-18 08:00:00 17.4 8 Sur 14 Sur 0 1000.6 -0.5 95
2019-06-18 07:00:00 15 8 Sudeste 18 Sur 0 1000.5 -2.1 96
2019-06-18 06:00:00 14.7 9 Sur 14 Sur 0 1000.5 -2.4 96
2019-06-18 05:00:00 14.6 5 Sur 10 Este 0 1001.1 -2.8 96
2019-06-18 04:00:00 15.1 5 Sur 14 Sudoeste 0 1002.6 -1.5 95
2019-06-18 03:00:00 15.7 0 Calma 12 Noroeste 0 1002.9 -1.4 94
2019-06-18 02:00:00 15.9 3 Noroeste 14 Oeste 0 1003.9 -0.9 94
2019-06-18 01:00:00 16.1 8 Noroeste 23 Noroeste 0 1004.1 -0.5 94
2019-06-18 00:00:00 16.4 8 Noroeste 14 Oeste 0 1004.3 -0.4 94
2019-06-17 23:00:00 16.5 6 Noroeste 23 Noroeste 0 1004.8 0.2 93
2019-06-17 22:00:00 16.4 7 Noroeste 19 Noroeste 0 1004.6 0.4 94
2019-06-17 21:00:00 16.4 12 Noroeste 27 Norte 0 1004.7 0.8 94
2019-06-17 20:00:00 16.2 10 Noroeste 21 Noroeste 0 1004.6 0.8 94
2019-06-17 19:00:00 16.8 12 Noroeste 26 Noroeste 0 1004.2 0.2 93
2019-06-17 18:00:00 17.3 11 Noroeste 20 Norte 0 1003.9 -0.2 93
2019-06-17 17:00:00 17.9 11 Noroeste 21 Noroeste 0 1003.8 -1.1 92
2019-06-17 16:00:00 19.1 10 Noroeste 22 Norte 0 1004 -1.5 90
2019-06-17 15:00:00 19 9 Norte 21 Norte 0 1004.1 -1.9 90
2019-06-17 14:00:00 18.7 7 Norte 15 Nordeste 0 1004.9 -1.4 90
2019-06-17 13:00:00 18.9 9 Norte 17 Nordeste 0 1005.5 -1 88
2019-06-17 12:00:00 18.6 11 Norte 17 Nordeste 0 1006 -1 88
2019-06-17 11:00:00 18.3 9 Nordeste 14 Norte 0 1006.3 -1.2 88
2019-06-17 10:00:00 18.4 7 Sudeste 15 Sudeste 0 1006.5 -0.6 87
2019-06-17 09:00:00 16.5 7 Sudeste 14 Sur 0 1007 -0.4 93
2019-06-17 08:00:00 15.1 3 Sur 5 Sur 0 1007.5 0.1 96
2019-06-17 07:00:00 13.8 4 Sur 6 Sur 0 1007.1 -0.6 96
2019-06-17 06:00:00 13.4 3 Sur 5 Sur 0 1007.4 -1.2 96
2019-06-17 05:00:00 14 2 Sudoeste 6 Sur 0 1007.4 -1.6 96
2019-06-17 04:00:00 14.8 0 Calma 9 Noroeste 0 1007.7 -1.5 96
2019-06-17 03:00:00 15.1 5 Noroeste 13 Oeste 0 1008.6 -1 96
2019-06-17 02:00:00 15.4 6 Noroeste 13 Noroeste 0 1009 -0.5 96
2019-06-17 01:00:00 15.5 8 Noroeste 14 Noroeste 0 1009.2 0.3 96
2019-06-17 00:00:00 15.6 9 Noroeste 18 Noroeste 0 1009.6 0.8 95
2019-06-16 23:00:00 15.7 10 Noroeste 22 Noroeste 0 1009.5 1 95
2019-06-16 22:00:00 15.9 11 Noroeste 23 Oeste 0 1008.9 1 95
2019-06-16 21:00:00 16.8 11 Noroeste 19 Noroeste 0 1008.8 1.1 93
2019-06-16 20:00:00 17.6 13 Noroeste 22 Noroeste 0 1008.5 0.6 89
2019-06-16 19:00:00 19.6 12 Nordeste 26 Nordeste 0 1007.9 -0.3 80
2019-06-16 18:00:00 18.9 16 Nordeste 26 Nordeste 0 1007.7 -1.1 85
2019-06-16 17:00:00 20 12 Nordeste 25 Nordeste 0 1007.9 -1.5 84
2019-06-16 16:00:00 19.8 16 Nordeste 23 Nordeste 0 1008.2 -2 83
2019-06-16 15:00:00 19.3 14 Nordeste 32 Nordeste 0 1008.8 -1.8 83
2019-06-16 14:00:00 18.8 15 Nordeste 27 Nordeste 0 1009.4 -2 80
2019-06-16 13:00:00 19.4 14 Nordeste 25 Nordeste 0 1010.2 -1.4 79
2019-06-16 12:00:00 19.1 8 Norte 16 Nordeste 0 1010.6 -1.4 81
2019-06-16 11:00:00 17.5 4 Nordeste 20 Este 0 1011.4 -0.3 77
2019-06-16 10:00:00 16.3 4 Sudeste 10 Sudeste 0 1011.6 -0.1 82
2019-06-16 09:00:00 14.3 6 Sur 13 Sur 0 1012 0.5 87
2019-06-16 08:00:00 11.9 8 Sur 12 Sudeste 0 1011.7 -0.2 94
2019-06-16 07:00:00 10.3 7 Sur 12 Sur 0 1011.7 -0.6 96
2019-06-16 06:00:00 10.4 7 Sudeste 13 Sudeste 0 1011.5 -1.2 95
2019-06-16 05:00:00 10.4 7 Sur 12 Sur 0 1011.9 -1.4 95
2019-06-16 04:00:00 10.9 7 Sur 11 Sur 0 1012.3 -1.1 95
2019-06-16 03:00:00 11.3 7 Sur 9 Sur 0 1012.7 -1 94
2019-06-16 02:00:00 11.9 6 Sur 9 Sur 0 1013.3 -0.3 94
2019-06-16 01:00:00 12.4 6 Sudeste 8 Sur 0 1013.4 0.2 92
2019-06-16 00:00:00 13.1 2 Sur 4 Sur 0 1013.7 0.6 90
2019-06-15 23:00:00 13.8 0 Calma 4 Nordeste 0 1013.6 0.6 89
2019-06-15 22:00:00 15.4 0 Calma 6 Norte 0 1013.2 0.7 86
2019-06-15 21:00:00 16.3 3 Nordeste 11 Norte 0 1013.1 0.9 82
2019-06-15 20:00:00 16.8 6 Nordeste 16 Noroeste 0 1013 0.7 79
2019-06-15 19:00:00 17.7 6 Norte 16 Norte 0 1012.5 0.5 73
2019-06-15 18:00:00 18.3 9 Norte 18 Norte 0 1012.2 0.4 68
2019-06-15 17:00:00 18.4 11 Nordeste 17 Nordeste 0 1012.3 0.4 65
2019-06-15 16:00:00 18.8 11 Nordeste 18 Nordeste 0 1012 0.5 62
2019-06-15 15:00:00 19.2 10 Nordeste 17 Norte 0 1011.8 0.4 65
2019-06-15 14:00:00 18.8 10 Nordeste 14 Nordeste 0 1011.9 0.9 63
2019-06-15 13:00:00 18.1 8 Nordeste 12 Nordeste 0 1011.5 0.5 66
2019-06-15 12:00:00 17.1 6 Norte 10 Nordeste 0 1011.4 1 68
2019-06-15 11:00:00 16.6 4 Noroeste 11 Noroeste 0 1011 1.4 68
2019-06-15 10:00:00 16.2 4 Sudeste 11 Sur 0 1011 1.7 79
2019-06-15 09:00:00 13.9 6 Sudeste 13 Sur 0 1010.4 1.4 92
2019-06-15 08:00:00 12.3 7 Sur 12 Sur 0 1009.6 0.5 97
2019-06-15 07:00:00 11.5 7 Sur 11 Sur 0 1009.3 0.4 97
2019-06-15 06:00:00 11.2 7 Sur 10 Sur 0 1009 0.4 96
2019-06-15 05:00:00 11.3 8 Sur 10 Sur 0 1009.1 0.6 96
2019-06-15 04:00:00 12.1 3 Sur 6 Sur 0 1008.9 0.5 95
2019-06-15 03:00:00 12.1 2 Sur 4 Sur 0 1008.6 0.6 95
2019-06-15 02:00:00 12.8 2 Sudoeste 4 Oeste 0 1008.5 1 93
2019-06-15 01:00:00 13.5 2 Oeste 12 Noroeste 0 1008.4 1.7 93
2019-06-15 00:00:00 14 8 Noroeste 14 Noroeste 0 1008 1.9 92
2019-06-14 23:00:00 14.1 8 Noroeste 13 Noroeste 0 1007.5 2.1 93
2019-06-14 22:00:00 14.1 6 Noroeste 14 Oeste 0 1006.7 1.6 94
2019-06-14 21:00:00 14.3 9 Noroeste 14 Noroeste 0 1006.1 1.2 94
2019-06-14 20:00:00 14.5 5 Noroeste 11 Oeste 0 1005.4 0.8 93
2019-06-14 19:00:00 14.3 6 Noroeste 13 Noroeste 0 1005.1 0.6 96
2019-06-14 18:00:00 14.4 5 Norte 15 Nordeste 0 1004.9 0.7 93
2019-06-14 17:00:00 14.4 10 Nordeste 18 Nordeste 0 1004.6 0.5 94
2019-06-14 16:00:00 15.3 6 Norte 14 Norte 0 1004.5 0.6 86
2019-06-14 15:00:00 14.9 8 Nordeste 15 Este 0 1004.2 0.3 90
2019-06-14 14:00:00 14.9 9 Nordeste 16 Nordeste 0 1004.1 0 89
2019-06-14 13:00:00 15.1 10 Nordeste 14 Nordeste 0 1003.9 -0.1 89
2019-06-14 12:00:00 15.4 7 Nordeste 14 Nordeste 0 1003.9 -0.1 86
2019-06-14 11:00:00 15.8 6 Nordeste 15 Este 0 1004.1 0.5 84
2019-06-14 10:00:00 15.7 8 Este 14 Este 0 1004 0.3 79
2019-06-14 09:00:00 14.7 5 Sudeste 8 Sudeste 0 1004 0.2 91
2019-06-14 08:00:00 12.6 4 Sur 7 Sur 0 1003.6 0.3 96
2019-06-14 07:00:00 11.6 5 Sur 6 Sur 0 1003.7 -0.5 96
2019-06-14 06:00:00 11.3 5 Sur 6 Sur 0 1003.8 -0.6 96
2019-06-14 05:00:00 11.6 4 Sudeste 6 Sudeste 0 1003.3 -1.7 96
2019-06-14 04:00:00 12.3 4 Sudeste 5 Sudeste 0 1004.2 -0.9 93
2019-06-14 03:00:00 13.8 0 Calma 5 Noroeste 0 1004.4 -1.1 92
2019-06-14 02:00:00 13.7 3 Oeste 6 Oeste 0 1005 -0.2 90
2019-06-14 01:00:00 13.8 3 Noroeste 15 Noroeste 0 1005.1 0.6 88
2019-06-14 00:00:00 14 6 Noroeste 12 Noroeste 0 1005.5 2 89
2019-06-13 23:00:00 13.9 4 Noroeste 8 Oeste 0 1005.2 2.1 93
2019-06-13 22:00:00 13.7 4 Oeste 17 Noroeste 0 1004.5 1.8 94
2019-06-13 21:00:00 13.7 14 Noroeste 24 Noroeste 0 1003.5 1.1 92
2019-06-13 20:00:00 14.8 7 Noroeste 23 Norte 0 1003.1 1 87
2019-06-13 19:00:00 14.8 7 Norte 17 Nordeste 0 1002.7 0.9 88
2019-06-13 18:00:00 15.4 10 Nordeste 19 Nordeste 0 1002.4 0.7 86
2019-06-13 17:00:00 15.2 12 Nordeste 25 Nordeste 0 1002.1 0 85
2019-06-13 16:00:00 15.7 15 Nordeste 26 Nordeste 0 1001.8 -0.5 84
2019-06-13 15:00:00 15.6 13 Nordeste 25 Norte 0 1001.7 -1 83
2019-06-13 14:00:00 16 13 Nordeste 22 Nordeste 0 1002.1 -0.6 84
2019-06-13 13:00:00 16.9 12 Nordeste 19 Nordeste 0 1002.3 -0.4 82
2019-06-13 12:00:00 16.2 9 Nordeste 14 Nordeste 0 1002.7 -0.2 81
2019-06-13 11:00:00 15.5 6 Norte 10 Norte 0 1002.7 -0.2 82
2019-06-13 10:00:00 14.5 0 Calma 9 Sudeste 0 1002.7 -0.2 85
2019-06-13 09:00:00 12.2 7 Sudeste 12 Sur 0 1002.9 0 94
2019-06-13 08:00:00 11.1 9 Sudeste 13 Sudeste 0 1002.9 0 96
2019-06-13 07:00:00 10 7 Sur 11 Sur 0 1002.9 -0.3 96
2019-06-13 06:00:00 10.1 7 Sur 10 Sur 0 1002.9 -0.6 96
2019-06-13 05:00:00 10.3 6 Sur 9 Sur 0 1002.9 -1.3 95
2019-06-13 04:00:00 10.8 6 Sur 8 Sur 0 1003.2 -1.6 96
2019-06-13 03:00:00 10.7 5 Sur 9 Sudeste 0 1003.5 -1.8 95
2019-06-13 02:00:00 11.3 6 Sudeste 8 Sudeste 0 1004.2 -1.4 94
2019-06-13 01:00:00 13.2 4 Noroeste 10 Noroeste 0 1004.8 -0.5 88
2019-06-13 00:00:00 13.2 5 Noroeste 13 Noroeste 0 1005.3 0.2 87
2019-06-12 23:00:00 13.7 8 Noroeste 18 Noroeste 0 1005.6 0.6 88
2019-06-12 22:00:00 13.6 9 Noroeste 22 Noroeste 0 1005.3 0.4 88
2019-06-12 21:00:00 14 12 Noroeste 22 Noroeste 0 1005.1 -0.1 87
2019-06-12 20:00:00 14.5 9 Noroeste 22 Noroeste 0 1005 -0.3 84
2019-06-12 19:00:00 14.6 10 Noroeste 32 Noroeste 0 1004.9 -0.5 82
2019-06-12 18:00:00 15.3 15 Noroeste 33 Noroeste 0 1005.2 0.1 78
2019-06-12 17:00:00 15.4 17 Noroeste 32 Noroeste 0 1005.3 -0.4 80
2019-06-12 16:00:00 15.1 15 Noroeste 35 Noroeste 0 1005.4 -0.4 79
2019-06-12 15:00:00 14.8 19 Noroeste 37 Noroeste 0 1005.1 -0.7 79
2019-06-12 14:00:00 14.9 15 Noroeste 34 Noroeste 0 1005.7 0.3 70
2019-06-12 13:00:00 14.9 12 Noroeste 23 Noroeste 0 1005.8 0.5 70
2019-06-12 12:00:00 14.5 12 Noroeste 29 Oeste 0 1005.8 0.8 69
2019-06-12 11:00:00 14.1 15 Oeste 39 Oeste 0 1005.4 1.1 63
2019-06-12 10:00:00 13.8 16 Oeste 32 Oeste 0 1005.3 1 62
2019-06-12 09:00:00 13.7 12 Oeste 37 Oeste 0 1005 0.9 65
2019-06-12 08:00:00 13.4 12 Oeste 33 Oeste 0 1004.3 0.4 65
2019-06-12 07:00:00 13.2 17 Oeste 43 Oeste 0 1004.3 -0.3 67
2019-06-12 06:00:00 13.3 19 Oeste 43 Noroeste 0 1004.1 -0.9 70
2019-06-12 05:00:00 13.1 16 Oeste 36 Oeste 0 1003.9 -1.6 72
2019-06-12 04:00:00 13 16 Oeste 37 Sudoeste 0 1004.6 -1.4 73
2019-06-12 03:00:00 13.1 17 Oeste 37 Noroeste 0 1005 -1.1 73
2019-06-12 02:00:00 12.9 17 Oeste 33 Oeste 0 1005.5 -0.9 79
2019-06-12 01:00:00 13.1 15 Oeste 39 Oeste 0 1006 -0.6 84
2019-06-12 00:00:00 13 16 Oeste 36 Noroeste 0 1006.1 -0.6 85
2019-06-11 23:00:00 13.3 18 Noroeste 43 Oeste 0 1006.4 -0.3 88
2019-06-11 22:00:00 13.1 19 Noroeste 39 Noroeste 0 1006.6 -0.5 88
2019-06-11 21:00:00 13.4 15 Oeste 48 Oeste 0 1006.7 -0.4 84
2019-06-11 20:00:00 15 22 Noroeste 50 Noroeste 0 1006.7 -0.6 77
2019-06-11 19:00:00 14.5 22 Noroeste 43 Noroeste 0 1007.1 -0.3 82
2019-06-11 18:00:00 14.7 24 Noroeste 46 Oeste 0 1007.1 -0.3 79
2019-06-11 17:00:00 15.1 24 Noroeste 48 Oeste 0 1007.3 -0.2 78
2019-06-11 16:00:00 14.7 22 Noroeste 43 Noroeste 0 1007.4 0 80
2019-06-11 15:00:00 14.2 20 Noroeste 39 Oeste 0 1007.4 0.2 78
2019-06-11 14:00:00 13.6 20 Noroeste 34 Oeste 0 1007.5 0.7 84
2019-06-11 13:00:00 13 16 Noroeste 37 Oeste 0.7 1007.4 0.9 91
2019-06-11 12:00:00 12.7 14 Oeste 32 Noroeste 0.1 1007.2 1.3 89
2019-06-11 11:00:00 11.5 12 Oeste 33 Oeste 1.6 1006.8 0.9 92
2019-06-11 10:00:00 11.7 15 Oeste 32 Oeste 1 1006.5 0.7 91
2019-06-11 09:00:00 11.7 11 Oeste 27 Oeste 0.3 1005.9 0.3 89
2019-06-11 08:00:00 11.3 9 Oeste 26 Oeste 0 1005.9 -0.3 92
2019-06-11 07:00:00 10.9 10 Oeste 22 Oeste 1.1 1005.8 -0.8 96
2019-06-11 06:00:00 11 4 Oeste 17 Oeste 0.3 1005.6 -1 96
2019-06-11 05:00:00 10.8 8 Oeste 18 Oeste 1.9 1006.2 -1 96
2019-06-11 04:00:00 10.9 9 Oeste 23 Oeste 1.2 1006.6 -0.9 96
2019-06-11 03:00:00 11.2 8 Oeste 22 Oeste 1 1006.6 -1.3 95
2019-06-11 02:00:00 11.2 14 Noroeste 30 Noroeste 2.7 1007.2 -1 96
2019-06-11 01:00:00 11.7 3 Sudoeste 11 Oeste 0.5 1007.5 -0.6 93
2019-06-11 00:00:00 11.9 5 Sudoeste 11 Sudoeste 0.2 1007.9 -0.5 92
2019-06-10 23:00:00 12.8 5 Oeste 14 Oeste 0.5 1008.2 -0.5 91
2019-06-10 22:00:00 13.7 8 Noroeste 15 Noroeste 0 1008.1 -1 82
2019-06-10 21:00:00 13.9 6 Noroeste 13 Noroeste 0 1008.4 -0.8 84
2019-06-10 20:00:00 14.2 7 Noroeste 15 Noroeste 0 1008.7 -0.9 82
2019-06-10 19:00:00 14.7 6 Noroeste 13 Norte 0 1009.1 -0.9 81
2019-06-10 18:00:00 15 5 Noroeste 13 Norte 0 1009.2 -1 78
2019-06-10 17:00:00 15.5 6 Norte 15 Norte 0 1009.6 -0.7 78
2019-06-10 16:00:00 15.2 6 Noroeste 15 Nordeste 0 1010 -0.9 77
2019-06-10 15:00:00 15.8 7 Norte 17 Norte 0 1010.2 -0.9 76
2019-06-10 14:00:00 16.2 8 Norte 14 Norte 0 1010.3 -1 75
2019-06-10 13:00:00 16.1 7 Norte 12 Norte 0 1010.9 -0.3 75
2019-06-10 12:00:00 15.1 4 Norte 11 Noroeste 0 1011.1 -0.3 80
2019-06-10 11:00:00 14.2 6 Noroeste 13 Noroeste 0 1011.3 0.1 85
2019-06-10 10:00:00 13.1 8 Noroeste 15 Noroeste 0 1011.2 0.3 90
2019-06-10 09:00:00 12.6 10 Noroeste 17 Noroeste 0 1011.4 0.8 91
2019-06-10 08:00:00 12.9 5 Noroeste 12 Noroeste 0 1011.2 0 85
2019-06-10 07:00:00 12.3 2 Noroeste 12 Nordeste 0 1010.9 -0.5 85
2019-06-10 06:00:00 12.4 3 Norte 14 Oeste 0 1010.6 -1.4 86
2019-06-10 05:00:00 12.8 9 Noroeste 21 Noroeste 0 1011.2 -1.1 92
2019-06-10 04:00:00 12.8 7 Noroeste 19 Noroeste 0 1011.4 -1.6 92
2019-06-10 03:00:00 12.9 8 Noroeste 20 Noroeste 0 1012 -1.1 91
2019-06-10 02:00:00 12.8 6 Noroeste 19 Noroeste 0 1012.3 0.1 89
2019-06-10 01:00:00 13.1 9 Noroeste 24 Oeste 0 1013 1.1 89
2019-06-10 00:00:00 12.9 12 Noroeste 21 Noroeste 0 1013.1 1.2 96
2019-06-09 23:00:00 12.4 15 Noroeste 24 Oeste 0 1012.2 1.1 95
2019-06-09 22:00:00 13.2 8 Noroeste 15 Noroeste 0.3 1011.9 1.3 92
2019-06-09 21:00:00 13.4 6 Noroeste 23 Noroeste 0 1011.9 2 92
2019-06-09 20:00:00 13.2 9 Noroeste 29 Noroeste 0 1011.1 1.5 94
2019-06-09 19:00:00 12.7 11 Noroeste 31 Noroeste 0.1 1010.6 1.1 97
2019-06-09 18:00:00 13.3 13 Noroeste 31 Norte 0.1 1009.9 0.4 98
2019-06-09 17:00:00 13.8 13 Norte 33 Norte 0 1009.6 0.3 98
2019-06-09 16:00:00 13.8 9 Noroeste 35 Noroeste 0.9 1009.5 0.3 98
2019-06-09 15:00:00 13.6 21 Noroeste 36 Noroeste 0 1009.5 0.5 97
2019-06-09 14:00:00 13.9 15 Noroeste 27 Oeste 0 1009.3 0.4 97
2019-06-09 13:00:00 14.4 8 Oeste 19 Oeste 0 1009.2 0.3 97
2019-06-09 12:00:00 13.7 10 Oeste 17 Oeste 0 1009 0.2 97
2019-06-09 11:00:00 13.5 10 Oeste 22 Oeste 0.1 1008.9 0.3 97
2019-06-09 10:00:00 13.6 14 Noroeste 22 Oeste 0 1008.9 0.4 97
2019-06-09 09:00:00 13.9 6 Oeste 14 Sudoeste 0.5 1008.8 0 96
2019-06-09 08:00:00 13.9 4 Noroeste 15 Nordeste 0.3 1008.6 -0.9 96
2019-06-09 07:00:00 14.1 8 Noroeste 16 Norte 0 1008.5 -1.5 95
2019-06-09 06:00:00 13.9 10 Nordeste 19 Nordeste 0 1008.8 -1.9 92
2019-06-09 05:00:00 13.9 10 Nordeste 22 Nordeste 0 1009.5 -1.7 92
2019-06-09 04:00:00 14.3 10 Nordeste 20 Nordeste 0 1010 -1.8 90
2019-06-09 03:00:00 14.3 6 Norte 16 Nordeste 0 1010.7 -1.6 90
2019-06-09 02:00:00 14.7 5 Norte 15 Noroeste 0 1011.2 -0.9 90
2019-06-09 01:00:00 14.5 5 Noroeste 14 Noroeste 0 1011.8 -0.2 87
2019-06-09 00:00:00 14.7 5 Norte 16 Norte 0 1012.3 0.4 86
2019-06-08 23:00:00 14.7 5 Norte 15 Nordeste 0 1012.1 -0.1 87
2019-06-08 22:00:00 14.7 7 Nordeste 14 Nordeste 0 1012 0.4 85
2019-06-08 21:00:00 14.9 6 Nordeste 16 Nordeste 0 1011.9 0.3 86
2019-06-08 20:00:00 15.1 10 Nordeste 24 Nordeste 0 1012.2 0.4 86
2019-06-08 19:00:00 15.6 13 Nordeste 28 Este 0 1011.6 -0.8 81
2019-06-08 18:00:00 15.7 16 Nordeste 31 Nordeste 0 1011.6 -1.1 82
2019-06-08 17:00:00 16.2 17 Nordeste 34 Nordeste 0 1011.8 -1.6 76
2019-06-08 16:00:00 16.7 19 Nordeste 34 Nordeste 0 1012.4 -1.8 76
2019-06-08 15:00:00 17 21 Nordeste 39 Nordeste 0 1012.7 -1.9 75
2019-06-08 14:00:00 16.5 21 Nordeste 33 Nordeste 0 1013.4 -1.8 73
2019-06-08 13:00:00 16.1 18 Nordeste 32 Nordeste 0 1014.2 -1.3 72
2019-06-08 12:00:00 15.7 14 Nordeste 23 Nordeste 0 1014.6 -1 73
2019-06-08 11:00:00 16.3 4 Nordeste 14 Este 0 1015.2 -0.4 71
2019-06-08 10:00:00 15.6 5 Sur 10 Sudeste 0 1015.5 0.3 79
2019-06-08 09:00:00 12.3 8 Sur 14 Sudeste 0 1015.6 0.7 87
2019-06-08 08:00:00 11.5 6 Sur 11 Sur 0 1015.6 1 91
2019-06-08 07:00:00 10 7 Sur 13 Sur 0 1015.2 0.6 92
2019-06-08 06:00:00 10.3 7 Sur 22 Sur 0 1014.9 0.2 92
2019-06-08 05:00:00 11.3 6 Sur 9 Sur 0 1014.6 -0.1 90
2019-06-08 04:00:00 12.1 5 Sur 8 Sur 0 1014.6 0.3 88
2019-06-08 03:00:00 12.2 5 Sur 9 Sur 0 1014.7 0.5 89
2019-06-08 02:00:00 12.3 7 Sudeste 10 Sur 0 1014.7 1.1 87
2019-06-08 01:00:00 13.3 0 Calma 12 Noroeste 0 1014.3 1.2 82
2019-06-08 00:00:00 13.9 4 Noroeste 15 Oeste 0 1014.2 1.7 79
2019-06-07 23:00:00 14.1 8 Noroeste 20 Oeste 0 1013.6 1.9 79
2019-06-07 22:00:00 14.4 12 Noroeste 25 Noroeste 0 1013.1 2.4 73
2019-06-07 21:00:00 14.5 15 Noroeste 27 Noroeste 0 1012.5 2.3 73
2019-06-07 20:00:00 14.8 14 Noroeste 34 Noroeste 0 1011.7 2.4 73
2019-06-07 19:00:00 15 18 Noroeste 39 Oeste 0 1010.7 2.4 73
2019-06-07 18:00:00 15.1 20 Noroeste 39 Noroeste 0 1010.2 2.6 70
2019-06-07 17:00:00 15.1 21 Noroeste 48 Noroeste 0 1009.3 2.9 69
2019-06-07 16:00:00 15.9 28 Noroeste 51 Noroeste 0 1008.3 3 63
2019-06-07 15:00:00 16.3 26 Noroeste 50 Noroeste 0 1007.6 3.5 64
2019-06-07 14:00:00 16.3 25 Noroeste 48 Noroeste 0 1006.4 3.5 62
2019-06-07 13:00:00 16 26 Noroeste 50 Noroeste 0 1005.3 3.9 54
2019-06-07 12:00:00 16.6 18 Noroeste 36 Noroeste 0 1004.1 4 50
2019-06-07 11:00:00 16.5 17 Noroeste 31 Noroeste 0 1002.9 4.4 54
2019-06-07 10:00:00 16.5 8 Noroeste 23 Oeste 0 1001.4 4.5 52
2019-06-07 09:00:00 16.2 11 Sudoeste 31 Oeste 0 1000.1 4.6 48
2019-06-07 08:00:00 15.4 12 Sudoeste 37 Sudoeste 0 998.5 4 50
2019-06-07 07:00:00 14.5 14 Sudoeste 39 Sudoeste 0 996.9 2.4 51
2019-06-07 06:00:00 14.9 18 Sudoeste 60 Sur 0 995.5 1.5 51
2019-06-07 05:00:00 15 18 Sudoeste 49 Sur 0 994.5 0.8 55
2019-06-07 04:00:00 15.2 19 Sudoeste 52 Sur 0 994.5 0.9 54
2019-06-07 03:00:00 14.9 17 Sudoeste 55 Sudoeste 0.1 994 2.5 54
2019-06-07 02:00:00 16.1 21 Sudoeste 62 Sudoeste 0 993.7 3.2 50
2019-06-07 01:00:00 18.5 23 Sudoeste 52 Oeste 0 993.6 2.7 48
2019-06-07 00:00:00 20.7 18 Sudoeste 48 Sudoeste 0 991.5 1.9 46
2019-06-06 23:00:00 20.2 17 Sudoeste 89 Sudoeste 0 990.5 0.7 47
2019-06-06 22:00:00 23.2 16 Oeste 42 Sudoeste 0 990.9 0.4 33
2019-06-06 21:00:00 24.3 11 Sudoeste 44 Sudoeste 0 989.6 -2.5 34
2019-06-06 20:00:00 23.1 6 Sur 14 Sur 0 989.8 -3.7 42
2019-06-06 19:00:00 23.4 7 Sudeste 22 Sur 0 990.5 -4.7 44
2019-06-06 18:00:00 24 10 Sur 27 Sur 0 992.1 -4.6 39
2019-06-06 17:00:00 24 10 Sur 30 Sur 0 993.5 -4.8 39
2019-06-06 16:00:00 22.8 8 Sudeste 26 Sur 0 995.2 -4.6 39
2019-06-06 15:00:00 22.4 14 Sur 32 Sur 0 996.7 -4.3 42
2019-06-06 14:00:00 21.9 5 Sur 35 Sudeste 0 998.3 -3.9 49
2019-06-06 13:00:00 20.3 9 Sudeste 21 Sur 0 999.8 -3 57
2019-06-06 12:00:00 17.8 9 Sudeste 23 Este 0 1001 -2.5 61
2019-06-06 11:00:00 16.5 10 Sudeste 26 Sudeste 0 1002.2 -2.2 62
2019-06-06 10:00:00 14.8 10 Sudeste 20 Sudeste 0 1002.8 -1.8 76
2019-06-06 09:00:00 13.2 9 Sudeste 18 Sudeste 0 1003.5 -1.4 85
2019-06-06 08:00:00 11.6 7 Sur 13 Sur 0 1004.4 -0.6 92
2019-06-06 07:00:00 10.2 7 Sur 11 Sur 0 1004.6 -0.6 94
2019-06-06 06:00:00 10.6 7 Sur 13 Sudeste 0 1004.9 -0.7 94
2019-06-06 05:00:00 10.8 7 Sudeste 10 Sudeste 0 1005 -1.1 94
2019-06-06 04:00:00 10.9 6 Sur 12 Sur 0 1005.2 -1.1 94
2019-06-06 03:00:00 11.2 7 Sur 10 Sudeste 0 1005.6 -0.7 93
2019-06-06 02:00:00 11.8 5 Sur 7 Sur 0.1 1006.1 -0.1 90
2019-06-06 01:00:00 12.7 4 Sur 9 Sudoeste 0 1006.3 0.6 83
2019-06-06 00:00:00 13 0 Calma 8 Oeste 0 1006.3 0.7 79
2019-06-05 23:00:00 13.4 5 Oeste 15 Oeste 0 1006.2 1 77
2019-06-05 22:00:00 13.5 6 Oeste 18 Oeste 0 1005.7 0.6 76
2019-06-05 21:00:00 13.8 10 Noroeste 28 Noroeste 0 1005.6 0.8 74
2019-06-05 20:00:00 14.2 12 Noroeste 25 Noroeste 0 1005.2 0.4 74
2019-06-05 19:00:00 14.5 13 Noroeste 33 Noroeste 0 1005.1 0.4 71
2019-06-05 18:00:00 14.6 18 Noroeste 37 Noroeste 0 1004.8 0.5 81
2019-06-05 17:00:00 14.7 19 Noroeste 37 Noroeste 0 1004.8 0.9 78
2019-06-05 16:00:00 14.7 24 Noroeste 42 Noroeste 0 1004.7 1.6 79
2019-06-05 15:00:00 15.3 22 Noroeste 45 Noroeste 0 1004.3 1.8 83
2019-06-05 14:00:00 14.6 21 Noroeste 46 Oeste 0 1003.9 2 81
2019-06-05 13:00:00 14.7 24 Noroeste 49 Noroeste 0.1 1003.1 1.4 81
2019-06-05 12:00:00 13.4 19 Noroeste 42 Noroeste 0 1002.5 0.7 88
2019-06-05 11:00:00 13.2 17 Noroeste 30 Noroeste 0 1001.9 0.7 93
2019-06-05 10:00:00 12.2 8 Noroeste 29 Noroeste 3.2 1001.7 0.6 96
2019-06-05 09:00:00 11.9 5 Sudoeste 16 Sudoeste 1.3 1001.8 1.2 96
2019-06-05 08:00:00 11.7 5 Oeste 15 Noroeste 2.4 1001.2 -0.2 96
2019-06-05 07:00:00 11.5 9 Oeste 24 Oeste 1.4 1001.1 -0.3 96
2019-06-05 06:00:00 11.9 7 Oeste 24 Noroeste 1.9 1000.6 -1 96
2019-06-05 05:00:00 12 12 Oeste 23 Oeste 0.3 1001.4 -0.8 96
2019-06-05 04:00:00 12.3 5 Oeste 12 Noroeste 0.4 1001.4 -1.3 95
2019-06-05 03:00:00 12.7 8 Oeste 19 Oeste 0.8 1001.6 -1.5 93
2019-06-05 02:00:00 13.1 4 Oeste 15 Oeste 0.1 1002.2 -0.7 94
2019-06-05 01:00:00 13.3 0 Calma 8 Oeste 0.3 1002.7 -0.1 94
2019-06-05 00:00:00 14.2 3 Oeste 13 Oeste 0.5 1003.1 0.3 92
2019-06-04 23:00:00 14 6 Noroeste 13 Oeste 0 1002.9 0.2 92
2019-06-04 22:00:00 14.1 5 Oeste 26 Oeste 0.8 1002.8 0.4 93
2019-06-04 21:00:00 14.5 15 Noroeste 26 Oeste 0 1002.8 0.8 92
2019-06-04 20:00:00 15.6 11 Noroeste 31 Oeste 0 1002.7 0.8 83
2019-06-04 19:00:00 15.7 18 Noroeste 36 Noroeste 0 1002.4 1.2 81
2019-06-04 18:00:00 15.7 19 Noroeste 46 Oeste 0 1002 1.5 83
2019-06-04 17:00:00 16 22 Noroeste 40 Noroeste 0 1001.9 1.9 89
2019-06-04 16:00:00 19.4 8 Norte 13 Nordeste 0 1001.2 1.7 87
2019-06-04 15:00:00 19 8 Nordeste 18 Nordeste 0 1000.5 1.1 89
2019-06-04 14:00:00 19.3 10 Norte 19 Norte 0 1000 1.2 87
2019-06-04 13:00:00 19.9 8 Norte 18 Norte 0 999.5 0.9 87
2019-06-04 12:00:00 18.9 9 Norte 19 Norte 0 999.4 0.6 90
2019-06-04 11:00:00 18.5 7 Noroeste 15 Noroeste 0 998.8 0.1 90
2019-06-04 10:00:00 17.1 7 Noroeste 13 Oeste 0 998.6 -0.2 92
2019-06-04 09:00:00 16.5 6 Noroeste 13 Oeste 0 998.8 0.3 95
2019-06-04 08:00:00 15.8 9 Noroeste 14 Noroeste 0 998.7 0.4 96
2019-06-04 07:00:00 15.4 3 Noroeste 9 Noroeste 0 998.8 0 96
2019-06-04 06:00:00 14.8 0 Calma 10 Sudeste 0 998.5 -1.4 96
2019-06-04 05:00:00 14.6 4 Sur 12 Sudeste 0 998.3 -3.2 96
2019-06-04 04:00:00 14.7 7 Sudeste 13 Sur 0 998.8 -4 96
2019-06-04 03:00:00 14.8 6 Sur 9 Sudeste 0 999.9 -3.9 96
2019-06-04 02:00:00 15.2 5 Sur 8 Sur 0 1001.5 -2.9 95
2019-06-04 01:00:00 15.9 3 Sudeste 5 Sur 0 1002.8 -1.5 96
2019-06-04 00:00:00 16.2 0 Calma 5 Nordeste 0 1003.8 -0.5 95
2019-06-03 23:00:00 17.1 2 Norte 8 Norte 0 1004.4 0.2 95
2019-06-03 22:00:00 17.3 3 Norte 11 Norte 0 1004.3 -0.1 95
2019-06-03 21:00:00 17.7 4 Norte 14 Norte 0 1004.3 -0.4 93
2019-06-03 20:00:00 18.5 8 Norte 18 Norte 0 1004.2 -1 92
2019-06-03 19:00:00 18.3 10 Nordeste 21 Nordeste 0 1004.4 -1.3 91
2019-06-03 18:00:00 19.3 12 Nordeste 21 Nordeste 0 1004.7 -1.5 90
2019-06-03 17:00:00 18.9 13 Nordeste 23 Nordeste 0 1005.2 -1.8 90
2019-06-03 16:00:00 19.7 13 Nordeste 22 Nordeste 0 1005.7 -1.9 89
2019-06-03 15:00:00 19.7 11 Norte 18 Nordeste 0 1006.2 -1.6 87
2019-06-03 14:00:00 19.3 12 Nordeste 20 Nordeste 0 1007 -1.1 88
2019-06-03 13:00:00 19.6 7 Norte 16 Norte 0 1007.6 -0.8 86
2019-06-03 12:00:00 19 7 Norte 11 Norte 0 1007.8 -0.5 81
2019-06-03 11:00:00 18.4 5 Norte 9 Norte 0 1008.1 0.2 81
2019-06-03 10:00:00 17.5 3 Noroeste 6 Noroeste 0 1008.4 1.3 83
2019-06-03 09:00:00 16.6 2 Sudeste 15 Noroeste 0 1008.3 1 91
2019-06-03 08:00:00 14.8 5 Sur 13 Sur 0 1007.9 0.5 92
2019-06-03 07:00:00 14 8 Sur 16 Sur 0 1007.1 -0.8 95
2019-06-03 06:00:00 13.9 8 Sur 12 Sur 0 1007.3 -0.5 95
2019-06-03 05:00:00 14.3 7 Sur 9 Sur 0 1007.4 -0.7 95
2019-06-03 04:00:00 14.4 0 Calma 7 Sur 0 1007.9 -0.7 95
2019-06-03 03:00:00 14.5 6 Sur 12 Sur 0 1007.8 -1 95
2019-06-03 02:00:00 14.8 6 Sur 9 Sur 0 1008.1 -0.6 95
2019-06-03 01:00:00 15.9 3 Nordeste 6 Norte 0 1008.6 0.3 94
2019-06-03 00:00:00 15.7 0 Calma 3 Sudoeste 0 1008.8 0.3 93
2019-06-02 23:00:00 16.2 2 Sudoeste 5 Noroeste 0 1008.7 0.5 91
2019-06-02 22:00:00 17 2 Noroeste 13 Noroeste 0 1008.3 0.3 89
2019-06-02 21:00:00 17.4 9 Noroeste 19 Noroeste 0 1008.5 0.9 87
2019-06-02 20:00:00 17.9 10 Noroeste 21 Noroeste 0 1008.2 0.9 92
2019-06-02 19:00:00 18.8 9 Noroeste 18 Oeste 0 1008 0.9 92
2019-06-02 18:00:00 20.4 5 Norte 12 Noroeste 0 1007.6 0.6 82
2019-06-02 17:00:00 19.4 3 Norte 12 Oeste 0 1007.3 0.3 91
2019-06-02 16:00:00 19.4 6 Noroeste 17 Noroeste 0 1007.1 0.3 92
2019-06-02 15:00:00 19.8 9 Noroeste 17 Noroeste 0 1007 0.2 89
2019-06-02 14:00:00 20.8 8 Norte 13 Norte 0 1007 0.4 81
2019-06-02 13:00:00 20.7 8 Norte 13 Nordeste 0 1006.8 0.3 83
2019-06-02 12:00:00 20.8 9 Nordeste 15 Nordeste 0 1006.8 0.3 81
2019-06-02 11:00:00 21.5 5 Nordeste 9 Sur 0 1006.6 -0.3 73
2019-06-02 10:00:00 22.4 9 Sur 17 Sur 0 1006.5 -0.2 72
2019-06-02 09:00:00 19.9 8 Sur 15 Sur 0 1006.5 -0.3 80
2019-06-02 08:00:00 18.1 9 Sur 13 Sur 0 1006.9 0.2 85
2019-06-02 07:00:00 15.6 9 Sur 13 Sur 0 1006.7 -0.6 90
2019-06-02 06:00:00 15.9 10 Sur 14 Sur 0 1006.8 -0.4 88
2019-06-02 05:00:00 16.3 10 Sur 15 Sur 0 1006.7 -0.7 82
2019-06-02 04:00:00 16.3 10 Sur 16 Sur 0 1007.3 -0.2 86
2019-06-02 03:00:00 16.8 10 Sur 15 Sur 0 1007.2 -0.6 84
2019-06-02 02:00:00 17.1 8 Sur 11 Sur 0 1007.4 -0.2 82
2019-06-02 01:00:00 16.8 5 Sur 10 Sudeste 0 1007.5 0.5 84
2019-06-02 00:00:00 17.2 4 Sudeste 8 Sudeste 0 1007.8 1.1 85
2019-06-01 23:00:00 17.6 2 Sudeste 5 Este 0 1007.6 1.2 82
2019-06-01 22:00:00 18.7 0 Calma 12 Noroeste 0 1007 0.9 79
2019-06-01 21:00:00 19.5 5 Noroeste 15 Noroeste 0 1006.7 0.2 84
2019-06-01 20:00:00 19.7 13 Noroeste 23 Noroeste 0 1006.4 -0.3 86
2019-06-01 19:00:00 20.4 15 Noroeste 24 Noroeste 0 1006.1 -0.9 86
2019-06-01 18:00:00 22.7 11 Noroeste 19 Noroeste 0 1006.5 -0.5 70
2019-06-01 17:00:00 22.3 12 Noroeste 18 Noroeste 0 1006.7 -0.8 75
2019-06-01 16:00:00 22.9 13 Noroeste 15 Noroeste 0 1007 -0.9 75
2019-06-01 15:00:00 27.1 6 Nordeste 12 Nordeste 0 1007 -1.3 50
2019-06-01 14:00:00 26.6 4 Norte 9 Norte 0 1007.5 -0.5 52
2019-06-01 13:00:00 25.5 2 Norte 15 Sur 0 1007.9 0 58
2019-06-01 12:00:00 28.5 8 Sudeste 23 Sur 0 1008.3 0.2 43
2019-06-01 11:00:00 26.8 11 Sudeste 27 Sudeste 0 1008 -0.4 48
2019-06-01 10:00:00 24.6 13 Sur 26 Sudeste 0 1007.9 -0.1 56
2019-06-01 09:00:00 22.2 13 Sudeste 24 Sudeste 0 1008.1 0.2 66
2019-06-01 08:00:00 19.6 10 Sur 19 Sudeste 0 1008.4 0.2 79
2019-06-01 07:00:00 17.4 12 Sur 19 Sur 0 1008 -0.7 90
2019-06-01 06:00:00 16.5 8 Sur 17 Sur 0 1007.9 -1.4 92
2019-06-01 05:00:00 16.7 10 Sur 17 Sur 0 1008.2 -1.2 92
2019-06-01 04:00:00 16.4 10 Sur 16 Sur 0 1008.7 -1 92
2019-06-01 03:00:00 16.6 8 Sur 12 Sudeste 0 1009.3 -1 90
2019-06-01 02:00:00 17.4 8 Sur 12 Sur 0 1009.4 -0.9 89
2019-06-01 01:00:00 17.8 6 Sur 10 Sur 0 1009.7 -0.3 87
2019-06-01 00:00:00 18.4 4 Sudeste 6 Oeste 0 1010.3 0.4 84
2019-05-31 23:00:00 18.9 3 Oeste 14 Sudeste 0 1010.3 0.1 78
2019-05-31 22:00:00 20.8 2 Sur 8 Sudeste 0 1010 -0.3 73
2019-05-31 21:00:00 24.2 0 Calma 5 Noroeste 0 1009.9 -0.5 60
2019-05-31 20:00:00 25.2 3 Noroeste 11 Nordeste 0 1010.2 -0.7 61
2019-05-31 19:00:00 24.9 8 Nordeste 13 Nordeste 0 1010.3 -1.2 56
2019-05-31 18:00:00 25.3 9 Nordeste 17 Nordeste 0 1010.4 -1.4 55
2019-05-31 17:00:00 25.9 10 Nordeste 19 Nordeste 0 1010.9 -1.4 56
2019-05-31 16:00:00 25.3 10 Nordeste 18 Nordeste 0 1011.5 -1.2 56
2019-05-31 15:00:00 25.1 10 Nordeste 19 Nordeste 0 1011.8 -1.2 60
2019-05-31 14:00:00 23.8 9 Nordeste 17 Nordeste 0 1012.3 -1 66
2019-05-31 13:00:00 22.4 7 Nordeste 13 Nordeste 0 1012.7 -0.9 70
2019-05-31 12:00:00 21.5 5 Nordeste 11 Nordeste 0 1013 -0.7 74
2019-05-31 11:00:00 19.5 5 Norte 14 Sudeste 0 1013.3 -0.3 80
2019-05-31 10:00:00 19.9 6 Sudeste 14 Sudeste 0 1013.6 0 79
2019-05-31 09:00:00 17.8 7 Sudeste 16 Sudeste 0 1013.7 0 85
2019-05-31 08:00:00 15.2 10 Sudeste 15 Sudeste 0 1013.6 -0.3 92
2019-05-31 07:00:00 13.2 8 Sur 14 Sur 0 1013.6 -0.6 95
2019-05-31 06:00:00 13.3 9 Sur 14 Sur 0 1013.7 -1.2 95
2019-05-31 05:00:00 13.4 6 Sur 13 Sur 0 1013.9 -1.5 94
2019-05-31 04:00:00 13.9 7 Sur 12 Sur 0 1014.2 -1.6 93
2019-05-31 03:00:00 14.4 7 Sur 10 Sur 0 1014.9 -1.1 92
2019-05-31 02:00:00 14.8 5 Sur 6 Sur 0 1015.4 -0.4 89
2019-05-31 01:00:00 15.5 4 Sudeste 8 Sudeste 0 1015.8 0.6 89
2019-05-31 00:00:00 15.8 5 Sur 8 Sudeste 0 1016 0.9 88
2019-05-30 23:00:00 16.4 3 Este 8 Este 0 1015.8 0.6 85
2019-05-30 22:00:00 17.2 4 Sudeste 9 Este 0 1015.2 0 84
2019-05-30 21:00:00 20 4 Oeste 10 Este 0 1015.1 -0.4 71
2019-05-30 20:00:00 20.1 6 Nordeste 19 Nordeste 0 1015.2 -0.4 70
2019-05-30 19:00:00 20.3 11 Nordeste 20 Nordeste 0 1015.2 -0.7 68
2019-05-30 18:00:00 20.4 14 Nordeste 23 Nordeste 0 1015.5 -0.5 65
2019-05-30 17:00:00 20.5 14 Nordeste 24 Nordeste 0 1015.6 -0.9 65
2019-05-30 16:00:00 21.5 8 Norte 18 Nordeste 0 1015.9 -0.9 65
2019-05-30 15:00:00 20.2 7 Norte 21 Nordeste 0 1016 -1 66
2019-05-30 14:00:00 20.6 7 Norte 18 Nordeste 0 1016.5 -0.5 64
2019-05-30 13:00:00 20 7 Nordeste 14 Nordeste 0 1016.8 -0.5 68
2019-05-30 12:00:00 19.1 6 Norte 12 Nordeste 0 1017 -0.3 70
2019-05-30 11:00:00 17.5 4 Nordeste 13 Sur 0 1017 -0.1 76
2019-05-30 10:00:00 16.9 6 Sudeste 18 Sudeste 0 1017.3 0.6 80
2019-05-30 09:00:00 13.9 11 Sudeste 20 Sudeste 0 1017.3 0.7 85
2019-05-30 08:00:00 12 12 Sudeste 19 Sudeste 0 1017.1 0.4 92
2019-05-30 07:00:00 10.3 10 Sur 18 Sur 0 1016.7 -0.3 95
2019-05-30 06:00:00 9.9 9 Sur 15 Sur 0 1016.6 -0.5 95
2019-05-30 05:00:00 10.1 8 Sur 13 Sur 0 1016.7 -1.1 95
2019-05-30 04:00:00 10.6 9 Sur 13 Sur 0 1017 -0.9 95
2019-05-30 03:00:00 10.8 8 Sur 13 Sur 0 1017.1 -0.9 95
2019-05-30 02:00:00 11.2 9 Sur 12 Sur 0 1017.8 -0.2 92
2019-05-30 01:00:00 11.8 6 Sur 10 Sur 0 1017.9 0.5 92
2019-05-30 00:00:00 12.4 5 Sur 6 Sur 0 1018 0.5 91
2019-05-29 23:00:00 13 0 Calma 4 Sudeste 0 1018 0.4 89
2019-05-29 22:00:00 14.5 0 Calma 8 Nordeste 0 1017.4 0.1 86
2019-05-29 21:00:00 15.8 6 Nordeste 12 Nordeste 0 1017.5 0 81
2019-05-29 20:00:00 16.1 6 Nordeste 13 Nordeste 0 1017.6 -0.1 81
2019-05-29 19:00:00 16.6 9 Nordeste 15 Nordeste 0 1017.3 -0.5 79
2019-05-29 18:00:00 16.9 10 Nordeste 16 Nordeste 0 1017.5 -0.2 80
2019-05-29 17:00:00 17 8 Norte 14 Norte 0 1017.7 -0.2 79
2019-05-29 16:00:00 17.4 7 Norte 13 Norte 0 1017.8 -0.2 79
2019-05-29 15:00:00 16.6 8 Norte 14 Norte 0 1017.7 -0.1 80
2019-05-29 14:00:00 16.4 7 Norte 13 Norte 0 1017.9 0.5 80
2019-05-29 13:00:00 17 8 Norte 14 Norte 0 1018 0.7 81
2019-05-29 12:00:00 15.8 4 Norte 8 Norte 0 1017.8 0.9 83
2019-05-29 11:00:00 15 5 Norte 14 Nordeste 0.1 1017.4 1.2 86
2019-05-29 10:00:00 14 7 Nordeste 19 Nordeste 0 1017.3 1.6 89
2019-05-29 09:00:00 13.5 9 Nordeste 17 Nordeste 0 1016.9 1.5 90
2019-05-29 08:00:00 13.1 4 Norte 22 Noroeste 0 1016.2 1.2 95
2019-05-29 07:00:00 12.7 11 Noroeste 28 Oeste 0 1015.7 0.8 97
2019-05-29 06:00:00 12.4 15 Noroeste 35 Noroeste 1.8 1015.4 0.3 97
2019-05-29 05:00:00 12.7 13 Noroeste 33 Noroeste 0.2 1015 -0.4 93
2019-05-29 04:00:00 13.2 12 Noroeste 29 Oeste 0 1014.9 -0.3 93
2019-05-29 03:00:00 13.3 14 Noroeste 30 Noroeste 0 1015.1 -0.1 92
2019-05-29 02:00:00 13.8 16 Noroeste 30 Noroeste 0 1015.4 0.5 91
2019-05-29 01:00:00 13.8 15 Noroeste 27 Noroeste 0 1015.2 0.8 91
2019-05-29 00:00:00 13.8 14 Noroeste 29 Norte 0 1015.2 1 90
2019-05-28 23:00:00 13.8 18 Noroeste 32 Oeste 0 1014.9 0.9 89
2019-05-28 22:00:00 13.7 15 Noroeste 31 Noroeste 0 1014.4 0.6 89
2019-05-28 21:00:00 14.1 17 Noroeste 33 Noroeste 0 1014.2 0.5 86
2019-05-28 20:00:00 14.9 16 Noroeste 35 Noroeste 0 1014 0.5 84
2019-05-28 19:00:00 14.9 17 Noroeste 36 Noroeste 0 1013.8 0.5 88
2019-05-28 18:00:00 14.6 20 Noroeste 30 Noroeste 0 1013.7 0.7 83
2019-05-28 17:00:00 15.6 16 Noroeste 30 Noroeste 0 1013.5 1.1 84
2019-05-28 16:00:00 14.9 19 Noroeste 37 Noroeste 0.3 1013.3 1.2 91
2019-05-28 15:00:00 14.3 18 Noroeste 33 Noroeste 0 1013 1.2 88
2019-05-28 14:00:00 14.5 18 Noroeste 41 Oeste 0 1012.4 0.9 83
2019-05-28 13:00:00 13 25 Noroeste 46 Noroeste 0.3 1012.1 0.7 94
2019-05-28 12:00:00 14.7 18 Noroeste 33 Noroeste 0 1011.8 1 90
2019-05-28 11:00:00 14 13 Noroeste 25 Noroeste 0 1011.5 1 93
2019-05-28 10:00:00 13 16 Noroeste 32 Noroeste 0 1011.4 1.4 96
2019-05-28 09:00:00 12.5 15 Noroeste 40 Noroeste 1.5 1010.8 0.8 95
2019-05-28 08:00:00 13.1 18 Noroeste 28 Noroeste 0 1010.5 0.7 92
2019-05-28 07:00:00 13 17 Noroeste 27 Noroeste 0 1010 0.3 92
2019-05-28 06:00:00 12.8 13 Noroeste 27 Oeste 0 1010 0 92
2019-05-28 05:00:00 12.9 14 Noroeste 27 Noroeste 0 1009.8 -0.4 92
2019-05-28 04:00:00 13 10 Noroeste 24 Noroeste 0 1009.7 -0.9 92
2019-05-28 03:00:00 12.9 12 Noroeste 25 Noroeste 0 1010 -0.7 92
2019-05-28 02:00:00 13.2 12 Noroeste 23 Noroeste 0 1010.2 -0.4 90
2019-05-28 01:00:00 13.4 15 Noroeste 28 Oeste 0 1010.6 0.6 88
2019-05-28 00:00:00 13.4 14 Noroeste 31 Noroeste 0 1010.7 0.7 89
2019-05-27 23:00:00 13.6 11 Noroeste 21 Noroeste 0 1010.6 1.1 89
2019-05-27 22:00:00 13.8 12 Noroeste 22 Noroeste 0 1010 0.9 89
2019-05-27 21:00:00 13.8 12 Noroeste 23 Noroeste 0 1010 1.5 89
2019-05-27 20:00:00 13.9 14 Noroeste 28 Noroeste 0 1009.5 1 91
2019-05-27 19:00:00 13.9 12 Noroeste 24 Norte 0 1009.1 0.3 96
2019-05-27 18:00:00 14.3 9 Noroeste 21 Noroeste 0.1 1008.5 -0.1 98
2019-05-27 17:00:00 14.5 13 Noroeste 49 Noroeste 0 1008.5 -0.3 98
2019-05-27 16:00:00 14.4 16 Noroeste 33 Oeste 0 1008.8 0 98
2019-05-27 15:00:00 14.3 15 Noroeste 28 Oeste 0.3 1008.6 -0.3 97
2019-05-27 14:00:00 14.5 12 Noroeste 22 Noroeste 0.2 1008.8 -0.1 95
2019-05-27 13:00:00 14.5 8 Noroeste 17 Oeste 0 1008.8 0 93
2019-05-27 12:00:00 14.6 6 Noroeste 15 Oeste 0 1008.9 0.1 93
2019-05-27 11:00:00 14.3 6 Noroeste 15 Noroeste 0 1008.9 -0.1 91
2019-05-27 10:00:00 14.1 6 Oeste 22 Noroeste 0 1008.8 -0.1 91
2019-05-27 09:00:00 13.5 10 Noroeste 17 Noroeste 0 1008.8 -0.1 91
2019-05-27 08:00:00 13.4 7 Oeste 21 Noroeste 0 1009 -0.4 92
2019-05-27 07:00:00 13.2 6 Noroeste 18 Noroeste 0 1008.9 -0.9 93
2019-05-27 06:00:00 13.2 9 Oeste 18 Oeste 0 1008.9 -1.3 94
2019-05-27 05:00:00 13.1 7 Oeste 21 Noroeste 0 1009.4 -1.2 96
2019-05-27 04:00:00 12.7 5 Noroeste 10 Noroeste 0 1009.8 -1.6 96
2019-05-27 03:00:00 12.7 6 Oeste 17 Noroeste 0 1010.2 -1.6 96
2019-05-27 02:00:00 12.8 5 Noroeste 16 Noroeste 0 1010.6 -1.4 96
2019-05-27 01:00:00 12.9 10 Noroeste 17 Noroeste 0.1 1011.4 -0.4 96
2019-05-27 00:00:00 13.2 10 Noroeste 18 Noroeste 0 1011.8 -0.1 96
2019-05-26 23:00:00 13.1 8 Noroeste 14 Noroeste 0.1 1012 -0.2 96
2019-05-26 22:00:00 13.6 8 Noroeste 15 Noroeste 0 1011.8 -0.6 96
2019-05-26 21:00:00 13.6 8 Noroeste 15 Noroeste 0 1011.9 -0.8 96
2019-05-26 20:00:00 13.5 6 Noroeste 22 Noroeste 0.1 1012.2 -1 96
2019-05-26 19:00:00 13.8 12 Noroeste 21 Noroeste 0 1012.4 -0.9 95
2019-05-26 18:00:00 15 10 Noroeste 25 Noroeste 0 1012.7 -0.8 91
2019-05-26 17:00:00 15 13 Noroeste 24 Norte 0 1013.2 -0.4 91
2019-05-26 16:00:00 14.3 12 Noroeste 23 Noroeste 0 1013.3 -0.8 95
2019-05-26 15:00:00 14 12 Noroeste 28 Noroeste 0 1013.5 -0.6 96
2019-05-26 14:00:00 14.9 15 Noroeste 26 Noroeste 0 1013.6 0 92
2019-05-26 13:00:00 14.6 12 Noroeste 23 Noroeste 0 1014.1 0.1 92
2019-05-26 12:00:00 13.7 12 Noroeste 28 Oeste 0 1014.1 0.2 94
2019-05-26 11:00:00 13.9 11 Noroeste 23 Noroeste 0 1013.6 -0.1 93
2019-05-26 10:00:00 13.3 8 Noroeste 15 Noroeste 0.1 1014 0.4 96
2019-05-26 09:00:00 12.6 5 Oeste 13 Oeste 0.3 1013.9 0.1 97
2019-05-26 08:00:00 12.4 6 Oeste 13 Noroeste 0.2 1013.7 -0.2 97
2019-05-26 07:00:00 12.5 10 Noroeste 17 Oeste 0.1 1013.6 -0.7 97
2019-05-26 06:00:00 13.1 8 Noroeste 16 Noroeste 0 1013.8 -0.7 93
2019-05-26 05:00:00 13.2 3 Oeste 25 Noroeste 0 1013.9 -1.2 93
2019-05-26 04:00:00 13.2 14 Noroeste 21 Oeste 0 1014.3 -0.9 93
2019-05-26 03:00:00 13.3 12 Noroeste 22 Oeste 0 1014.5 -1 93
2019-05-26 02:00:00 13.7 8 Noroeste 16 Oeste 0 1015.1 -0.6 92
2019-05-26 01:00:00 13.8 9 Noroeste 17 Noroeste 0 1015.2 -0.1 91
2019-05-26 00:00:00 13.9 9 Noroeste 18 Noroeste 0 1015.5 0.7 91
2019-05-25 23:00:00 13.9 10 Noroeste 22 Noroeste 0 1015.7 0.9 90
2019-05-25 22:00:00 13.8 9 Noroeste 20 Norte 0 1015.3 0.6 90
2019-05-25 21:00:00 14 10 Noroeste 18 Noroeste 0 1014.8 -0.1 89
2019-05-25 20:00:00 14.5 9 Noroeste 17 Noroeste 0 1014.8 -0.2 87
2019-05-25 19:00:00 15.7 8 Noroeste 19 Noroeste 0 1014.7 -0.3 86
2019-05-25 18:00:00 15.4 10 Noroeste 20 Norte 0 1014.9 -0.2 87
2019-05-25 17:00:00 15.9 9 Noroeste 20 Noroeste 0.1 1015 -0.3 91
2019-05-25 16:00:00 15 10 Noroeste 22 Noroeste 0 1015 -0.4 90
2019-05-25 15:00:00 15.5 12 Noroeste 26 Noroeste 0 1015.1 -0.1 92
2019-05-25 14:00:00 14.7 15 Noroeste 24 Noroeste 0 1015.3 0.7 91
2019-05-25 13:00:00 14.9 12 Noroeste 21 Noroeste 0 1015.4 1.2 94
2019-05-25 12:00:00 14.5 11 Noroeste 24 Noroeste 0 1015.2 1.2 95
2019-05-25 11:00:00 14.1 12 Noroeste 24 Noroeste 0 1014.6 0.9 95
2019-05-25 10:00:00 13.9 14 Noroeste 26 Oeste 0.3 1014.2 0.9 96
2019-05-25 09:00:00 13.5 10 Noroeste 20 Noroeste 0 1014 1.2 97
2019-05-25 08:00:00 12.7 11 Noroeste 24 Oeste 0.2 1013.7 1 96
2019-05-25 07:00:00 13 17 Noroeste 28 Noroeste 0 1013.3 0.4 95
2019-05-25 06:00:00 12.9 17 Noroeste 29 Oeste 0 1012.8 -0.4 95
2019-05-25 05:00:00 13.2 17 Noroeste 33 Noroeste 0 1012.7 -0.7 95
2019-05-25 04:00:00 13.2 14 Noroeste 25 Noroeste 0 1012.9 -0.6 95
2019-05-25 03:00:00 13.4 15 Noroeste 31 Noroeste 0 1013.2 -0.2 93
2019-05-25 02:00:00 13.5 11 Noroeste 24 Noroeste 0 1013.4 0.2 93
2019-05-25 01:00:00 13.4 11 Noroeste 28 Noroeste 0 1013.5 0.9 95
2019-05-25 00:00:00 13.7 15 Noroeste 31 Noroeste 0 1013.4 1.2 96
2019-05-24 23:00:00 13.7 15 Noroeste 32 Noroeste 0 1013.2 1.2 95
2019-05-24 22:00:00 13.6 17 Noroeste 32 Noroeste 0 1012.6 0.7 95
2019-05-24 21:00:00 13.7 18 Noroeste 32 Oeste 0 1012.2 0.2 96
2019-05-24 20:00:00 13.9 17 Noroeste 31 Noroeste 0 1012 -0.1 95
2019-05-24 19:00:00 13.9 18 Noroeste 34 Noroeste 0 1011.9 -0.2 95
2019-05-24 18:00:00 13.8 18 Noroeste 31 Oeste 0 1012 0 94
2019-05-24 17:00:00 14.2 20 Noroeste 36 Noroeste 0.1 1012.1 0 93
2019-05-24 16:00:00 14.4 19 Noroeste 39 Noroeste 0 1012.1 0.2 92
2019-05-24 15:00:00 14.1 19 Noroeste 38 Noroeste 0 1012 0.5 93
2019-05-24 14:00:00 13.7 20 Noroeste 38 Noroeste 0 1012.1 0.4 94
2019-05-24 13:00:00 13.6 18 Noroeste 33 Oeste 0 1011.9 0.3 95
2019-05-24 12:00:00 13.2 22 Noroeste 33 Noroeste 0 1011.5 0.2 97
2019-05-24 11:00:00 12.2 13 Noroeste 37 Noroeste 0.6 1011.7 1.1 98
2019-05-24 10:00:00 11.6 21 Noroeste 36 Noroeste 0.4 1011.6 1.3 98
2019-05-24 09:00:00 12.1 17 Noroeste 34 Noroeste 0.4 1011.3 1.5 98
2019-05-24 08:00:00 11.7 22 Noroeste 37 Noroeste 0.5 1010.6 0.8 98
2019-05-24 07:00:00 12.1 15 Noroeste 33 Noroeste 1.1 1010.3 0.2 97
2019-05-24 06:00:00 13.2 25 Noroeste 39 Noroeste 0 1009.8 -0.3 90
2019-05-24 05:00:00 13.2 18 Noroeste 36 Noroeste 0 1009.8 -0.6 92
2019-05-24 04:00:00 13.2 12 Oeste 41 Noroeste 0 1010.1 -0.6 94
2019-05-24 03:00:00 13.2 25 Noroeste 42 Noroeste 0 1010.1 -0.6 95
2019-05-24 02:00:00 13.5 23 Noroeste 38 Noroeste 0.3 1010.4 -0.4 95
2019-05-24 01:00:00 13.9 13 Noroeste 24 Noroeste 0 1010.7 0 96
2019-05-24 00:00:00 13.8 12 Noroeste 27 Noroeste 0 1010.7 0.1 96
2019-05-23 23:00:00 13.9 13 Noroeste 28 Noroeste 0 1010.8 0.5 97
2019-05-23 22:00:00 14 5 Noroeste 20 Noroeste 0.3 1010.7 0.8 97
2019-05-23 21:00:00 14.1 10 Noroeste 22 Oeste 1 1010.6 1.2 97
2019-05-23 20:00:00 14.1 14 Noroeste 33 Oeste 0.5 1010.3 1.1 96
2019-05-23 19:00:00 14.8 14 Noroeste 28 Noroeste 0 1009.9 0.6 93
2019-05-23 18:00:00 15.3 14 Noroeste 29 Noroeste 0 1009.4 0.3 92
2019-05-23 17:00:00 15.7 13 Noroeste 31 Noroeste 0 1009.2 0.1 92
2019-05-23 16:00:00 15.9 12 Noroeste 28 Noroeste 0 1009.3 -0.1 92
2019-05-23 15:00:00 15.1 14 Noroeste 28 Noroeste 0 1009.1 -0.1 93
2019-05-23 14:00:00 15.8 15 Noroeste 34 Noroeste 0 1009.1 0.4 92
2019-05-23 13:00:00 15.4 16 Noroeste 31 Noroeste 0 1009.4 1 92
2019-05-23 12:00:00 15.7 14 Noroeste 31 Noroeste 0 1009.2 1.4 90
2019-05-23 11:00:00 15.8 10 Noroeste -- -- -- 1008.7 1.4 91
2019-05-23 10:00:00 15.1 5 Noroeste 14 Oeste 0 1008.4 1.6 91
2019-05-23 09:00:00 15.1 6 Sur 12 Sur 0 1007.8 1 92
2019-05-23 08:00:00 13.7 9 Sur 14 Sur 0 1007.3 0.4 94
2019-05-23 07:00:00 13.2 10 Sur 14 Sudeste 0 1006.8 -0.2 95
2019-05-23 06:00:00 12.8 9 Sur 14 Sur 0 1006.8 -0.6 96
2019-05-23 05:00:00 13 10 Sur 15 Sur 0 1006.9 -0.7 96
2019-05-23 04:00:00 12.9 9 Sur 13 Sudeste 0 1007 -0.8 96
2019-05-23 03:00:00 13.1 7 Sur 10 Sur 0 1007.4 -0.7 95
2019-05-23 02:00:00 13.2 4 Sur 7 Sur 0 1007.6 -0.4 95
2019-05-23 01:00:00 13.8 3 Sudeste 5 Sudeste 0 1007.8 0.2 94
2019-05-23 00:00:00 14.5 0 Calma 6 Oeste 0 1008.1 0.7 92
2019-05-22 23:00:00 15.1 3 Oeste 13 Oeste 0 1008 1.2 92
2019-05-22 22:00:00 15.3 5 Oeste 14 Oeste 0 1007.6 0.7 90
2019-05-22 21:00:00 17.3 3 Sudeste 8 Norte 0 1007.4 0.4 87
2019-05-22 20:00:00 19.3 3 Norte 12 Norte 0 1006.8 -0.6 77
2019-05-22 19:00:00 19.2 5 Norte 13 Norte 0 1006.9 -0.8 79
2019-05-22 18:00:00 18.8 9 Norte 16 Nordeste 0 1007 -1.1 80
2019-05-22 17:00:00 20.8 8 Nordeste 18 Nordeste 0 1007.4 -1.2 73
2019-05-22 16:00:00 20 11 Nordeste 20 Norte 0 1007.7 -1.1 75
2019-05-22 15:00:00 18.5 14 Nordeste 22 Nordeste 0 1008.1 -1.2 79
2019-05-22 14:00:00 18.9 12 Nordeste 20 Nordeste 0 1008.6 -1 77
2019-05-22 13:00:00 18.5 9 Nordeste 20 Nordeste 0 1008.8 -1.2 74
2019-05-22 12:00:00 19.3 5 Sudeste 20 Sudeste 0 1009.3 -0.8 67
2019-05-22 11:00:00 17.5 11 Sudeste 22 Sudeste 0 1009.6 -0.5 73
2019-05-22 10:00:00 15.1 8 Sudeste 14 Sudeste 0 1010 -0.2 86
2019-05-22 09:00:00 12.9 6 Sudeste 17 Sudeste 0 1010.1 0 92
2019-05-22 08:00:00 10.6 7 Sur 15 Sur 0 1010.1 0 96
2019-05-22 07:00:00 8.8 8 Sur 16 Sur 0 1010.2 -0.2 97
2019-05-22 06:00:00 9 10 Sur 17 Sudeste 0 1010.1 -0.4 97
2019-05-22 05:00:00 8.9 8 Sur 14 Sur 0 1010.1 -0.4 96
2019-05-22 04:00:00 9.3 9 Sur 13 Sur 0 1010.4 -0.2 96
2019-05-22 03:00:00 9.5 6 Sur 10 Sur 0 1010.5 -0.2 96
2019-05-22 02:00:00 10.4 6 Sur 8 Sur 0 1010.5 -0.2 96
2019-05-22 01:00:00 10.5 5 Sudeste 8 Sudeste 0 1010.6 0.5 94
2019-05-22 00:00:00 11 3 Sudeste 6 Sudeste 0 1010.7 1 93
2019-05-21 23:00:00 11.6 3 Este 17 Este 0 1010.7 1.4 92
2019-05-21 22:00:00 12.9 8 Nordeste 14 Nordeste 0 1010.1 1 90
2019-05-21 21:00:00 14.2 7 Nordeste 18 Nordeste 0 1009.7 0.6 86
2019-05-21 20:00:00 15 12 Nordeste 22 Nordeste 0 1009.3 0 85
2019-05-21 19:00:00 15.4 14 Nordeste 26 Nordeste 0 1009.1 0.1 82
2019-05-21 18:00:00 16.1 15 Nordeste 27 Nordeste 0 1009.1 0 80
2019-05-21 17:00:00 15.9 17 Nordeste 31 Nordeste 0 1009.3 -0.2 81
2019-05-21 16:00:00 16 18 Nordeste 32 Nordeste 0 1009 -0.5 83
2019-05-21 15:00:00 15.6 21 Nordeste 32 Nordeste 0 1009.1 -0.2 84
2019-05-21 14:00:00 16 19 Nordeste 29 Nordeste 0 1009.5 0.2 81
2019-05-21 13:00:00 16 14 Nordeste 22 Nordeste 0 1009.5 0.2 83
2019-05-21 12:00:00 15.2 11 Nordeste 15 Nordeste 0 1009.3 0.3 85
2019-05-21 11:00:00 15 8 Nordeste 14 Nordeste 0 1009.3 0.6 82
2019-05-21 10:00:00 13.3 6 Sudeste 13 Sur 0 1009.3 1.1 92
2019-05-21 09:00:00 11.1 8 Sur 15 Sur 0 1009 1.3 97
2019-05-21 08:00:00 9.5 8 Sur 13 Sur 0 1008.7 1.2 97
2019-05-21 07:00:00 8.3 7 Sur 9 Sur 0 1008.2 0.7 97
2019-05-21 06:00:00 8.4 6 Sur 12 Sudeste 0 1007.7 0.3 97
2019-05-21 05:00:00 8.8 6 Sur 10 Sudeste 0 1007.5 -0.4 97
2019-05-21 04:00:00 9.1 6 Sur 9 Sur 0 1007.5 -0.4 97
2019-05-21 03:00:00 9.9 6 Sur 11 Sudeste 0 1007.4 -0.5 97
2019-05-21 02:00:00 10.3 6 Sudeste 9 Sur 0 1007.9 0.2 95
2019-05-21 01:00:00 10.7 5 Sur 8 Sudeste 0 1007.9 1.1 95
2019-05-21 00:00:00 10.9 4 Sur 6 Sudeste 0 1007.9 1.4 95